Stidham, Oklahoma
Current Conditions -  °F | °C
As of 3:15 AM on Sunday 21 Dec 2014 (Local Time) from KOKM Reporting Station
Haze Haze  
Wind Chill: 41°   Ceiling: 1600
Heat Index: 41°   Visibility: 2.5mi
Dew Point: 41°   Wind: 0mph
Humidity: 99%   Direction: NA
Pressure: 30.12"   Gusts: NA
Location:  35.37°N, 95.7°W
Report Text: KOKM 210915Z AUTO 00000KT 2 1/2SM BR SCT003 OVC016 05/05 A3012 RMK AO2 T00510050
Loading
Personal Weather Stations






























Interactive Weather Map New forecast layout! Learn more

10-Day Weather Forecast

Advertisements
Track Severe Weather on mobile